Terminal Aerodrome Forecast
Issued by NWS

Home | Current Version | Previous Version | Text Only | Print | Product List | Glossary On
Versions: 1 2 3 4 5 6 7 8 9 10 11 12 13 14 15 16 17
000
FTUS42 KTBW 211600 AAB
TAFLAL
TAF AMD
KLAL 211624Z 2116/2212 VRB04KT P6SM VCSH SCT030 SCT070 BKN250
      TEMPO 2116/2118 BKN030
     FM211800 26005KT P6SM VCTS SCT040CB BKN070
     FM220000 VRB05KT P6SM FEW040 SCT100 BKN250
     FM220600 VRB03KT P6SM BKN100=

USA.gov is the U.S. government's official web portal to all federal, state and local government web resources and services.